Airfield :
LOGIN :

Register | Disclaimer

   EN    FR    IT 

 










Legend :    VFR   Marginal VFR   IFR   Intensive IFR   Very Intensive IFR
Visi :
Ceiling :
>= 8 km
>= 3000ft
5 to 8 km
1000 to 3000 ft
1500m to 5 km
500 to 1000 ft
800 to 1500m
200 to 500 ft
< 800m
< 200 ft
Symbols :   Thunderstorms  Fog  Heavy snow  Heavy precipitations  Wind > 20 kt
SIGMETs :     Misc.  Thunderstorms  Icing  Turbulence  Mountain Waves  Volcanic Ashes






- Airport Elevation : 1299 ft


EDTY - Adolf Würth

CURRENT METAR :
  • 200150Z AUTO 22007KT 9999 // OVC047/// 03/M01 Q1023

EXPIRED METARs :
  • 200120Z AUTO 22005KT 190V260 9999 // BKN042/// OVC049/// 03/M01 Q1023
  • 200050Z AUTO 22007KT 9999 // FEW044/// OVC052/// 03/M01 Q1023
  • 192350Z AUTO 21006KT 180V240 9999 // FEW036/// SCT057/// OVC140/// 02/M01 Q1024
  • 192320Z AUTO 22006KT 9999 // FEW033/// BKN038/// OVC140/// 02/M01 Q1024

TAF TAF EDTY
Valid from the 19 at 18:00 until the 20 at 03:00 UTC


191700Z 1918/2003 25010KT 9999 FEW030
BECMG 1918/1920 22005KT



MET'MAP, your aeronautical weather chart ! - Copyright ORBIFLY December 2007 - Disclaimer

ORBIFLY MET'MAP TEAM :

Programming & Development : Alexandra Zaïnal
Concept & original design : Baudouin d'Aumeries
Assistance for programming : Marc-Olivier Méhu
Technical & hardware support : Manuel Goepfert

Contact : metmap@orbifly.com




SOURCES & CREDITS :

   NOAA